Terminal Aerodrome Forecast
Issued by NWS Jackson, KY

Home | Current Version | Previous Version | Text Only | Print | Product List | Glossary On
Versions: 1 2 3 4 5 6 7 8 9 10 11 12 13 14 15 16
000
FTUS43 KJKL 261858 AAA
TAFJKL
TAF AMD
KJKL 261858Z 2619/2718 32010G20KT P6SM VCSH OVC007
     FM262100 32009G15KT 3SM -RA BR OVC007
     FM270500 35005KT 6SM -RA BR SCT007 BKN010
     FM271000 34005KT 6SM BR SCT007 SCT010
     FM271200 34005KT P6SM SCT010 SCT040
     FM271600 32003KT P6SM BKN030=

USA.gov is the U.S. government's official web portal to all federal, state and local government web resources and services.